createdAt,value
2019-05-12T00:02:07.742Z,11.20
2019-05-12T00:04:35.449Z,11.30
2019-05-12T00:07:02.982Z,11.20
2019-05-12T00:09:30.568Z,11.10
2019-05-12T00:11:59.111Z,11.10
2019-05-12T00:14:28.286Z,11.10
2019-05-12T00:16:58.067Z,11.20
2019-05-12T00:19:25.261Z,11.20
2019-05-12T00:21:53.113Z,11.10
2019-05-12T00:24:20.664Z,11.10
2019-05-12T00:26:49.695Z,11.10
2019-05-12T00:29:18.477Z,11.10
2019-05-12T00:31:47.795Z,11.00
2019-05-12T00:34:15.564Z,11.20
2019-05-12T00:36:43.128Z,11.10
2019-05-12T00:39:10.780Z,11.30
2019-05-12T00:41:39.000Z,11.30
2019-05-12T00:44:08.854Z,11.20
2019-05-12T00:46:38.356Z,11.30
2019-05-12T00:49:07.803Z,11.30
2019-05-12T00:51:34.674Z,11.30
2019-05-12T00:54:02.205Z,11.20
2019-05-12T00:56:30.008Z,11.20
2019-05-12T00:58:58.017Z,11.10
2019-05-12T01:01:25.668Z,11.00
2019-05-12T01:03:53.223Z,11.00
2019-05-12T01:06:20.757Z,11.10
2019-05-12T01:08:48.436Z,11.10
2019-05-12T01:11:17.822Z,11.10
2019-05-12T01:13:45.398Z,11.00
2019-05-12T01:16:12.936Z,11.00
2019-05-12T01:18:40.529Z,10.90
2019-05-12T01:21:08.108Z,11.00
2019-05-12T01:23:35.617Z,10.90
2019-05-12T01:26:03.336Z,11.10
2019-05-12T01:28:30.871Z,11.30
2019-05-12T01:31:00.349Z,11.20
2019-05-12T01:33:28.045Z,11.30
2019-05-12T01:35:55.592Z,11.20
2019-05-12T01:38:23.133Z,11.30
2019-05-12T01:40:50.709Z,11.20
2019-05-12T01:43:20.847Z,11.30
2019-05-12T01:45:48.264Z,11.30
2019-05-12T01:48:18.005Z,11.10
2019-05-12T01:50:47.443Z,11.10
2019-05-12T01:53:14.644Z,11.20
2019-05-12T01:55:42.224Z,11.30
2019-05-12T01:58:09.836Z,11.20
2019-05-12T02:00:38.890Z,11.30
2019-05-12T02:03:09.023Z,11.10
2019-05-12T02:05:38.099Z,11.20
2019-05-12T02:08:09.533Z,11.20
2019-05-12T02:10:38.738Z,11.10
2019-05-12T02:13:07.903Z,11.20
2019-05-12T02:15:35.247Z,11.10
2019-05-12T02:18:02.844Z,11.10
2019-05-12T02:20:30.393Z,11.20
2019-05-12T02:22:58.378Z,11.20
2019-05-12T02:25:27.982Z,11.20
2019-05-12T02:27:55.429Z,11.10
2019-05-12T02:30:22.963Z,11.00
2019-05-12T02:32:57.292Z,11.00
2019-05-12T02:35:20.103Z,10.90
2019-05-12T02:37:47.645Z,11.00
2019-05-12T02:40:15.461Z,11.00
2019-05-12T02:42:46.276Z,11.00
2019-05-12T02:45:15.374Z,11.00
2019-05-12T02:47:45.384Z,10.90
2019-05-12T02:50:14.378Z,11.00
2019-05-12T02:52:40.826Z,11.00
2019-05-12T02:55:09.982Z,10.90
2019-05-12T02:57:37.528Z,10.80
2019-05-12T03:00:06.105Z,10.90
2019-05-12T03:02:36.410Z,10.90
2019-05-12T03:05:07.185Z,10.80
2019-05-12T03:07:35.105Z,10.70
2019-05-12T03:10:05.011Z,10.80
2019-05-12T03:12:34.458Z,10.80
2019-05-12T03:15:01.438Z,10.90
2019-05-12T03:17:28.981Z,10.80
2019-05-12T03:19:56.517Z,10.80
2019-05-12T03:22:25.258Z,10.90
2019-05-12T03:25:07.962Z,10.90
2019-05-12T03:27:25.527Z,10.70
2019-05-12T03:29:51.689Z,10.70
2019-05-12T03:32:19.242Z,10.80
2019-05-12T03:34:47.781Z,10.70
2019-05-12T03:37:17.925Z,10.70
2019-05-12T03:39:44.894Z,10.80
2019-05-12T03:42:14.512Z,10.70
2019-05-12T03:44:44.429Z,10.60
2019-05-12T03:47:14.212Z,10.70
2019-05-12T03:49:40.374Z,10.70
2019-05-12T03:52:07.920Z,10.80
2019-05-12T03:54:35.462Z,10.70
2019-05-12T03:57:04.488Z,10.70
2019-05-12T03:59:34.846Z,10.80
2019-05-12T04:02:04.445Z,10.70
2019-05-12T04:04:34.103Z,10.70
2019-05-12T04:07:00.389Z,10.70
2019-05-12T04:09:27.913Z,10.70
2019-05-12T04:11:55.725Z,10.70
2019-05-12T04:14:25.285Z,10.70
2019-05-12T04:16:55.092Z,10.50
2019-05-12T04:19:24.698Z,10.50
2019-05-12T04:21:51.064Z,10.50
2019-05-12T04:24:18.593Z,10.60
2019-05-12T04:26:46.410Z,10.40
2019-05-12T04:29:15.449Z,10.50
2019-05-12T04:31:44.302Z,10.60
2019-05-12T04:34:15.798Z,10.60
2019-05-12T04:36:44.627Z,10.60
2019-05-12T04:39:10.541Z,10.70
2019-05-12T04:41:38.080Z,10.80
2019-05-12T04:44:06.175Z,10.70
2019-05-12T04:46:34.771Z,10.80
2019-05-12T04:49:05.320Z,10.70
2019-05-12T04:51:34.682Z,10.60
2019-05-12T04:54:00.975Z,10.70
2019-05-12T04:56:28.517Z,10.70
2019-05-12T04:58:56.102Z,10.60
2019-05-12T05:01:25.374Z,10.70
2019-05-12T05:03:54.535Z,10.70
2019-05-12T05:06:25.080Z,10.70
2019-05-12T05:08:54.282Z,10.70
2019-05-12T05:11:20.936Z,10.60
2019-05-12T05:13:48.514Z,10.60
2019-05-12T05:16:16.049Z,10.50
2019-05-12T05:18:44.009Z,10.60
2019-05-12T05:21:13.812Z,10.80
2019-05-12T05:23:40.980Z,10.80
2019-05-12T05:26:21.027Z,10.80
2019-05-12T05:28:37.788Z,10.80
2019-05-12T05:31:05.338Z,10.70
2019-05-12T05:33:34.015Z,10.60
2019-05-12T05:36:03.488Z,10.50
2019-05-12T05:38:31.545Z,10.60
2019-05-12T05:41:05.876Z,10.60
2019-05-12T05:43:30.004Z,10.60
2019-05-12T05:46:02.731Z,10.50
2019-05-12T05:48:26.833Z,10.50
2019-05-12T05:50:54.696Z,10.50
2019-05-12T05:53:24.292Z,10.70
2019-05-12T05:55:58.654Z,10.70
2019-05-12T05:58:20.862Z,10.50
2019-05-12T06:00:48.392Z,10.70
2019-05-12T06:03:23.242Z,10.60
2019-05-12T06:05:45.279Z,10.70
2019-05-12T06:08:16.295Z,10.70
2019-05-12T06:10:43.504Z,10.80
2019-05-12T06:13:11.172Z,10.70
2019-05-12T06:15:40.806Z,10.60
2019-05-12T06:18:08.273Z,10.50
2019-05-12T06:20:38.200Z,10.40
2019-05-12T06:23:05.124Z,10.40
2019-05-12T06:25:45.613Z,10.40
2019-05-12T06:28:04.593Z,10.50
2019-05-12T06:30:37.478Z,10.60
2019-05-12T06:33:04.084Z,10.50
2019-05-12T06:35:36.359Z,10.60
2019-05-12T06:38:01.787Z,10.30
2019-05-12T06:40:30.782Z,10.30
2019-05-12T06:42:59.146Z,10.40
2019-05-12T06:45:28.292Z,10.60
2019-05-12T06:47:56.173Z,10.60
2019-05-12T06:50:23.882Z,10.60
2019-05-12T06:52:53.109Z,10.80
2019-05-12T06:55:20.744Z,10.80
2019-05-12T06:57:50.234Z,10.60
2019-05-12T07:00:22.454Z,10.70
2019-05-12T07:02:52.340Z,10.70
2019-05-12T07:05:16.341Z,10.70
2019-05-12T07:07:46.046Z,10.70
2019-05-12T07:10:35.242Z,10.60
2019-05-12T07:12:58.299Z,10.50
2019-05-12T07:15:14.149Z,10.60
2019-05-12T07:17:44.168Z,10.60
2019-05-12T07:20:14.521Z,10.60
2019-05-12T07:22:45.801Z,10.70
2019-05-12T07:25:10.720Z,10.80
2019-05-12T07:27:39.759Z,10.90
2019-05-12T07:30:07.811Z,10.90
2019-05-12T07:32:35.339Z,10.80
2019-05-12T07:35:04.058Z,10.80
2019-05-12T07:37:33.966Z,10.70
2019-05-12T07:40:01.880Z,10.60
2019-05-12T07:42:32.832Z,10.50
2019-05-12T07:44:59.205Z,10.70
2019-05-12T07:47:29.296Z,10.70
2019-05-12T07:49:56.040Z,11.00
2019-05-12T07:52:24.229Z,11.30
2019-05-12T07:54:55.754Z,11.60
2019-05-12T07:57:21.341Z,12.00
2019-05-12T07:59:48.905Z,12.30
2019-05-12T08:02:16.452Z,12.60
2019-05-12T08:04:44.350Z,13.00
2019-05-12T08:07:14.311Z,13.10
2019-05-12T08:09:43.188Z,13.10
2019-05-12T08:12:16.402Z,12.70
2019-05-12T08:14:40.101Z,12.60
2019-05-12T08:17:16.859Z,12.50
2019-05-12T08:19:37.439Z,12.40
2019-05-12T08:22:05.028Z,12.10
2019-05-12T08:24:36.847Z,11.80
2019-05-12T08:27:06.096Z,11.80
2019-05-12T08:29:31.097Z,11.60
2019-05-12T08:31:58.648Z,12.20
2019-05-12T08:34:26.183Z,12.80
2019-05-12T08:36:57.963Z,13.20
2019-05-12T08:39:25.829Z,13.50
2019-05-12T08:41:53.561Z,13.20
2019-05-12T08:44:24.590Z,13.00
2019-05-12T08:46:53.364Z,12.80
2019-05-12T08:49:19.704Z,12.80
2019-05-12T08:51:49.647Z,13.20
2019-05-12T08:54:16.612Z,13.80
2019-05-12T08:56:44.168Z,13.80
2019-05-12T08:59:17.482Z,13.30
2019-05-12T09:01:40.972Z,13.00
2019-05-12T09:04:13.095Z,12.60
2019-05-12T09:06:37.894Z,12.60
2019-05-12T09:09:07.062Z,12.50
2019-05-12T09:11:34.613Z,12.50
2019-05-12T09:14:03.569Z,12.80
2019-05-12T09:16:33.172Z,13.40
2019-05-12T09:19:00.850Z,14.10
2019-05-12T09:21:31.790Z,14.10
2019-05-12T09:23:57.901Z,14.00
2019-05-12T09:26:28.370Z,13.70
2019-05-12T09:28:54.992Z,13.50
2019-05-12T09:31:25.439Z,13.60
2019-05-12T09:33:51.811Z,13.90
2019-05-12T09:36:20.029Z,14.40
2019-05-12T09:38:55.877Z,14.70
2019-05-12T09:41:18.120Z,15.10
2019-05-12T09:43:50.260Z,15.20
2019-05-12T09:46:14.928Z,14.90
2019-05-12T09:48:46.925Z,14.10
2019-05-12T09:51:13.333Z,14.00
2019-05-12T09:53:42.757Z,14.20
2019-05-12T09:56:10.614Z,14.20
2019-05-12T09:58:38.156Z,14.60
2019-05-12T10:01:05.705Z,15.20
2019-05-12T10:03:38.402Z,15.60
2019-05-12T10:06:03.780Z,15.50
2019-05-12T10:08:35.736Z,14.90
2019-05-12T10:11:00.968Z,14.40
2019-05-12T10:13:30.207Z,13.90
2019-05-12T10:15:58.750Z,13.70
2019-05-12T10:18:27.203Z,13.60
2019-05-12T10:20:54.737Z,14.20
2019-05-12T10:23:25.139Z,14.70
2019-05-12T10:25:53.650Z,15.10
2019-05-12T10:28:20.829Z,14.60
2019-05-12T10:30:53.669Z,14.20
2019-05-12T10:33:17.950Z,13.90
2019-05-12T10:35:45.488Z,14.30
2019-05-12T10:38:13.786Z,14.50
2019-05-12T10:40:44.238Z,14.80
2019-05-12T10:43:11.066Z,15.50
2019-05-12T10:45:38.650Z,15.90
2019-05-12T10:48:06.197Z,16.20
2019-05-12T10:50:34.240Z,15.80
2019-05-12T10:53:04.221Z,15.30
2019-05-12T10:55:33.422Z,14.90
2019-05-12T10:58:02.000Z,14.60
2019-05-12T11:00:29.770Z,14.60
2019-05-12T11:03:01.632Z,14.40
2019-05-12T11:05:26.588Z,14.40
2019-05-12T11:07:54.174Z,14.40
2019-05-12T11:10:23.312Z,14.50
2019-05-12T11:12:51.044Z,14.40
2019-05-12T11:15:18.697Z,14.20
2019-05-12T11:17:53.642Z,14.30
2019-05-12T11:20:21.392Z,14.50
2019-05-12T11:22:48.940Z,15.10
2019-05-12T11:25:16.480Z,15.20
2019-05-12T11:27:44.032Z,15.50
2019-05-12T11:30:13.183Z,16.00
2019-05-12T11:32:40.866Z,16.30
2019-05-12T11:35:08.403Z,16.20
2019-05-12T11:37:35.950Z,16.20
2019-05-12T11:40:04.470Z,15.90
2019-05-12T11:42:33.584Z,15.60
2019-05-12T11:45:01.313Z,15.10
2019-05-12T11:47:28.857Z,14.90
2019-05-12T11:49:58.471Z,14.90
2019-05-12T11:52:25.985Z,14.80
2019-05-12T11:54:54.301Z,14.60
2019-05-12T11:57:26.178Z,14.60
2019-05-12T11:59:59.098Z,14.40
2019-05-12T12:02:28.317Z,14.20
2019-05-12T12:04:49.743Z,14.30
2019-05-12T12:07:17.296Z,14.30
2019-05-12T12:09:49.493Z,14.40
2019-05-12T12:12:14.097Z,14.40
2019-05-12T12:14:46.193Z,14.40
2019-05-12T12:17:10.932Z,14.30
2019-05-12T12:19:43.891Z,14.40
2019-05-12T12:22:07.736Z,14.50
2019-05-12T12:24:38.212Z,14.40
2019-05-12T12:27:04.822Z,14.30
2019-05-12T12:29:34.432Z,14.30
2019-05-12T12:32:01.628Z,14.30
2019-05-12T12:34:30.349Z,14.40
2019-05-12T12:36:58.168Z,14.40
2019-05-12T12:39:25.710Z,14.30
2019-05-12T12:41:59.862Z,14.30
2019-05-12T12:44:24.229Z,14.30
2019-05-12T12:46:59.771Z,14.40
2019-05-12T12:49:22.937Z,14.40
2019-05-12T12:51:50.416Z,14.30
2019-05-12T12:54:17.967Z,14.10
2019-05-12T12:56:45.501Z,13.90
2019-05-12T12:59:14.683Z,14.00
2019-05-12T13:01:44.284Z,14.00
2019-05-12T13:04:13.299Z,13.80
2019-05-12T13:06:40.964Z,13.90
2019-05-12T13:09:18.211Z,13.80
2019-05-12T13:11:38.107Z,13.80
2019-05-12T13:14:05.649Z,14.00
2019-05-12T13:16:34.309Z,14.10
2019-05-12T13:19:06.089Z,14.40
2019-05-12T13:21:33.432Z,14.80
2019-05-12T13:24:00.545Z,15.30
2019-05-12T13:26:28.080Z,15.30
2019-05-12T13:28:55.768Z,15.40
2019-05-12T13:31:24.356Z,15.10
2019-05-12T13:33:54.893Z,14.90
2019-05-12T13:36:21.297Z,14.90
2019-05-12T13:38:48.840Z,14.50
2019-05-12T13:41:19.909Z,14.20
2019-05-12T13:43:54.466Z,14.00
2019-05-12T13:46:15.296Z,14.00
2019-05-12T13:48:43.417Z,13.90
2019-05-12T13:51:13.345Z,14.10
2019-05-12T13:53:45.698Z,14.00
2019-05-12T13:56:09.583Z,14.20
2019-05-12T13:58:42.755Z,14.60
2019-05-12T14:01:16.113Z,15.10
2019-05-12T14:03:39.865Z,15.50
2019-05-12T14:06:05.125Z,15.50
2019-05-12T14:08:34.296Z,15.80
2019-05-12T14:11:01.926Z,16.10
2019-05-12T14:13:29.552Z,15.90
2019-05-12T14:15:57.092Z,15.90
2019-05-12T14:18:24.942Z,15.70
2019-05-12T14:20:58.913Z,15.70
2019-05-12T14:23:23.950Z,15.60
2019-05-12T14:25:54.083Z,15.30
2019-05-12T14:28:23.247Z,15.20
2019-05-12T14:30:53.842Z,15.30
2019-05-12T14:33:19.910Z,15.60
2019-05-12T14:36:06.877Z,15.80
2019-05-12T14:38:34.705Z,16.10
2019-05-12T14:41:09.544Z,16.00
2019-05-12T14:43:33.898Z,16.00
2019-05-12T14:46:06.359Z,15.90
2019-05-12T14:48:30.080Z,15.90
2019-05-12T14:50:57.664Z,16.10
2019-05-12T14:53:25.199Z,16.10
2019-05-12T14:55:53.599Z,16.00
2019-05-12T14:58:23.446Z,15.70
2019-05-12T15:00:50.822Z,15.50
2019-05-12T15:03:19.860Z,15.40
2019-05-12T15:05:48.847Z,15.10
2019-05-12T15:08:21.169Z,15.00
2019-05-12T15:10:45.912Z,14.90
2019-05-12T15:13:13.928Z,15.10
2019-05-12T15:15:43.954Z,15.30
2019-05-12T15:18:13.806Z,15.50
2019-05-12T15:20:41.626Z,15.70
2019-05-12T15:23:10.105Z,15.70
2019-05-12T15:25:37.756Z,15.80
2019-05-12T15:28:05.292Z,15.30
2019-05-12T15:30:33.704Z,15.20
2019-05-12T15:33:04.308Z,15.40
2019-05-12T15:35:31.031Z,15.50
2019-05-12T15:37:58.645Z,15.70
2019-05-12T15:40:26.216Z,15.90
2019-05-12T15:42:55.162Z,15.90
2019-05-12T15:45:23.773Z,15.90
2019-05-12T15:47:53.411Z,15.80
2019-05-12T15:50:20.716Z,15.90
2019-05-12T15:52:48.248Z,15.90
2019-05-12T15:55:18.175Z,15.70
2019-05-12T15:57:45.073Z,15.80
2019-05-12T16:00:13.848Z,15.70
2019-05-12T16:02:44.061Z,15.80
2019-05-12T16:05:11.208Z,15.90
2019-05-12T16:07:39.671Z,16.00
2019-05-12T16:10:07.533Z,16.20
2019-05-12T16:12:35.322Z,16.10
2019-05-12T16:15:04.548Z,15.90
2019-05-12T16:17:34.202Z,15.80
2019-05-12T16:20:03.674Z,15.60
2019-05-12T16:22:37.271Z,15.80
2019-05-12T16:25:00.662Z,15.60
2019-05-12T16:27:33.892Z,15.60
2019-05-12T16:29:57.729Z,15.70
2019-05-12T16:32:27.298Z,15.70
2019-05-12T16:34:54.541Z,15.70
2019-05-12T16:37:47.262Z,15.40
2019-05-12T16:40:14.809Z,15.00
2019-05-12T16:42:48.369Z,15.60
2019-05-12T16:45:13.942Z,16.10
2019-05-12T16:47:41.009Z,16.40
2019-05-12T16:50:15.125Z,16.70
2019-05-12T16:52:40.587Z,17.00
2019-05-12T16:55:07.132Z,17.00
2019-05-12T16:57:34.693Z,17.10
2019-05-12T17:00:06.861Z,17.10
2019-05-12T17:02:39.452Z,17.10
2019-05-12T17:05:06.542Z,17.10
2019-05-12T17:07:30.673Z,17.00
2019-05-12T17:10:02.860Z,16.90
2019-05-12T17:12:32.203Z,16.60
2019-05-12T17:14:59.633Z,16.20
2019-05-12T17:17:26.441Z,15.80
2019-05-12T17:19:54.408Z,15.50
2019-05-12T17:22:23.954Z,15.50
2019-05-12T17:24:53.701Z,15.40
2019-05-12T17:27:26.685Z,15.10
2019-05-12T17:29:50.126Z,15.00
2019-05-12T17:32:17.672Z,15.10
2019-05-12T17:34:47.481Z,14.90
2019-05-12T17:37:14.723Z,14.90
2019-05-12T17:39:43.823Z,14.90
2019-05-12T17:42:13.156Z,15.00
2019-05-12T17:44:40.754Z,14.90
2019-05-12T17:47:12.903Z,14.70
2019-05-12T17:49:39.173Z,14.70
2019-05-12T17:52:13.111Z,14.60
2019-05-12T17:54:36.125Z,14.60
2019-05-12T17:57:04.076Z,14.60
2019-05-12T17:59:33.299Z,14.70
2019-05-12T18:02:05.709Z,14.60
2019-05-12T18:04:31.046Z,14.50
2019-05-12T18:07:06.084Z,14.50
2019-05-12T18:09:30.571Z,14.50
2019-05-12T18:11:57.992Z,14.60
2019-05-12T18:14:27.694Z,14.60
2019-05-12T18:17:02.382Z,14.60
2019-05-12T18:19:24.617Z,14.50
2019-05-12T18:21:54.867Z,14.50
2019-05-12T18:24:23.920Z,14.50
2019-05-12T18:26:56.584Z,14.50
2019-05-12T18:29:19.982Z,14.40
2019-05-12T18:31:47.528Z,14.20
2019-05-12T18:34:15.065Z,14.20
2019-05-12T18:36:43.362Z,14.10
2019-05-12T18:39:14.294Z,14.00
2019-05-12T18:41:40.173Z,14.00
2019-05-12T18:44:07.708Z,14.00
2019-05-12T18:46:44.454Z,14.00
2019-05-12T18:49:12.036Z,14.00
2019-05-12T18:51:34.290Z,13.90
2019-05-12T18:54:03.577Z,14.00
2019-05-12T18:56:33.599Z,13.90
2019-05-12T18:59:02.787Z,14.00
2019-05-12T19:01:30.140Z,13.90
2019-05-12T19:03:57.685Z,13.80
2019-05-12T19:06:25.558Z,13.80
2019-05-12T19:08:53.865Z,13.70
2019-05-12T19:11:23.671Z,13.70
2019-05-12T19:13:52.319Z,13.70
2019-05-12T19:16:20.120Z,13.50
2019-05-12T19:18:48.058Z,13.40
2019-05-12T19:21:19.724Z,13.50
2019-05-12T19:23:44.957Z,13.60
2019-05-12T19:26:13.611Z,13.50
2019-05-12T19:28:51.958Z,13.50
2019-05-12T19:31:10.605Z,13.50
2019-05-12T19:33:43.930Z,13.50
2019-05-12T19:36:08.181Z,13.40
2019-05-12T19:38:35.825Z,13.40
2019-05-12T19:41:04.641Z,13.30
2019-05-12T19:43:34.006Z,13.30
2019-05-12T19:46:03.387Z,13.30
2019-05-12T19:48:34.988Z,13.20
2019-05-12T19:51:16.006Z,13.20
2019-05-12T19:53:29.992Z,13.20
2019-05-12T19:55:57.529Z,13.00
2019-05-12T19:58:25.079Z,13.00
2019-05-12T20:00:54.270Z,13.10
2019-05-12T20:03:24.036Z,13.00
2019-05-12T20:05:53.755Z,12.90
2019-05-12T20:08:20.604Z,12.80
2019-05-12T20:10:49.627Z,12.70
2019-05-12T20:13:17.348Z,12.80
2019-05-12T20:15:45.185Z,12.70
2019-05-12T20:18:14.647Z,12.70
2019-05-12T20:20:44.624Z,12.70
2019-05-12T20:23:11.303Z,12.70
2019-05-12T20:25:38.836Z,12.70
2019-05-12T20:28:11.237Z,12.60
2019-05-12T20:30:35.649Z,12.60
2019-05-12T20:33:04.244Z,12.60
2019-05-12T20:35:33.766Z,12.60
2019-05-12T20:38:04.050Z,12.60
2019-05-12T20:40:32.258Z,12.50
2019-05-12T20:43:07.875Z,12.50
2019-05-12T20:45:33.091Z,12.60
2019-05-12T20:47:59.140Z,12.40
2019-05-12T20:50:32.552Z,12.40
2019-05-12T20:52:59.024Z,12.30
2019-05-12T20:55:25.300Z,12.20
2019-05-12T20:57:56.667Z,12.20
2019-05-12T21:00:24.254Z,12.20
2019-05-12T21:02:53.769Z,12.30
2019-05-12T21:05:20.664Z,12.20
2019-05-12T21:07:48.508Z,12.10
2019-05-12T21:10:19.938Z,12.20
2019-05-12T21:12:49.893Z,12.00
2019-05-12T21:15:20.150Z,12.00
2019-05-12T21:17:46.833Z,12.00
2019-05-12T21:20:16.548Z,12.00
2019-05-12T21:22:43.538Z,11.80
2019-05-12T21:25:12.867Z,11.80
2019-05-12T21:27:43.873Z,11.90
2019-05-12T21:30:11.949Z,11.80
2019-05-12T21:32:39.221Z,11.60
2019-05-12T21:35:18.431Z,11.50
2019-05-12T21:37:37.102Z,11.60
2019-05-12T21:40:06.176Z,11.70
2019-05-12T21:42:33.982Z,11.70
2019-05-12T21:45:04.327Z,11.50
2019-05-12T21:47:34.037Z,11.50
2019-05-12T21:50:00.105Z,11.50
2019-05-12T21:52:27.642Z,11.50
2019-05-12T21:54:55.637Z,11.30
2019-05-12T21:57:27.551Z,11.40
2019-05-12T21:59:53.177Z,11.40
2019-05-12T22:02:28.971Z,11.40
2019-05-12T22:04:53.267Z,11.40
2019-05-12T22:07:20.477Z,11.50
2019-05-12T22:09:48.303Z,11.50
2019-05-12T22:12:15.840Z,11.40
2019-05-12T22:14:46.297Z,11.40
2019-05-12T22:17:13.669Z,11.50
2019-05-12T22:19:41.372Z,11.40
2019-05-12T22:22:08.905Z,11.30
2019-05-12T22:24:38.812Z,11.40
2019-05-12T22:27:05.712Z,11.40
2019-05-12T22:29:34.219Z,11.40
2019-05-12T22:32:01.969Z,11.40
2019-05-12T22:34:37.236Z,11.40
2019-05-12T22:36:59.364Z,11.60
2019-05-12T22:39:27.105Z,11.70
2019-05-12T22:41:54.641Z,11.70
2019-05-12T22:44:24.903Z,11.70
2019-05-12T22:46:53.900Z,11.80
2019-05-12T22:49:21.299Z,11.80
2019-05-12T22:51:56.922Z,11.80
2019-05-12T22:54:18.293Z,11.80
2019-05-12T22:56:49.472Z,11.70
2019-05-12T22:59:15.196Z,11.80
2019-05-12T23:01:46.275Z,11.70
2019-05-12T23:04:14.090Z,11.70
2019-05-12T23:06:42.452Z,11.70
2019-05-12T23:09:10.552Z,11.80
2019-05-12T23:11:38.112Z,11.70
2019-05-12T23:14:05.651Z,11.80
2019-05-12T23:16:33.626Z,11.70
2019-05-12T23:19:09.784Z,11.70
2019-05-12T23:21:30.589Z,11.60
2019-05-12T23:24:00.599Z,11.60
2019-05-12T23:26:27.389Z,11.60
2019-05-12T23:28:54.928Z,11.50
2019-05-12T23:31:25.892Z,11.50
2019-05-12T23:33:54.219Z,11.50
2019-05-12T23:36:34.979Z,11.50
2019-05-12T23:38:54.181Z,11.40
2019-05-12T23:41:19.825Z,11.50
2019-05-12T23:43:47.370Z,11.50
2019-05-12T23:46:15.291Z,11.30
2019-05-12T23:48:43.970Z,11.40
2019-05-12T23:51:14.195Z,11.30
2019-05-12T23:53:41.194Z,11.20
2019-05-12T23:56:08.746Z,11.10
2019-05-12T23:58:36.281Z,11.10
